createdAt,value
2019-02-07T00:00:52.165Z,0.00
2019-02-07T00:01:52.677Z,0.00
2019-02-07T00:02:53.092Z,0.00
2019-02-07T00:03:53.313Z,0.00
2019-02-07T00:04:53.616Z,0.00
2019-02-07T00:05:53.734Z,0.00
2019-02-07T00:06:54.670Z,0.00
2019-02-07T00:07:54.457Z,0.00
2019-02-07T00:08:54.566Z,0.00
2019-02-07T00:09:54.571Z,0.00
2019-02-07T00:10:54.899Z,0.00
2019-02-07T00:11:54.983Z,0.00
2019-02-07T00:12:55.366Z,0.00
2019-02-07T00:13:55.768Z,0.00
2019-02-07T00:14:56.099Z,0.00
2019-02-07T00:15:56.467Z,0.00
2019-02-07T00:16:56.334Z,0.00
2019-02-07T00:17:56.633Z,0.00
2019-02-07T00:18:56.942Z,0.00
2019-02-07T00:19:57.263Z,0.00
2019-02-07T00:20:57.681Z,0.00
2019-02-07T00:21:58.545Z,0.00
2019-02-07T00:22:58.390Z,0.00
2019-02-07T00:23:58.710Z,0.00
2019-02-07T00:24:59.673Z,0.00
2019-02-07T00:25:59.361Z,0.00
2019-02-07T00:26:59.779Z,0.00
2019-02-07T00:28:00.197Z,0.00
2019-02-07T00:29:01.349Z,0.00
2019-02-07T00:30:01.975Z,0.00
2019-02-07T00:31:01.576Z,0.00
2019-02-07T00:32:01.690Z,0.00
2019-02-07T00:33:01.586Z,0.00
2019-02-07T00:34:01.551Z,0.00
2019-02-07T00:35:01.861Z,0.00
2019-02-07T00:36:02.522Z,0.00
2019-02-07T00:37:03.454Z,0.00
2019-02-07T00:38:03.897Z,0.00
2019-02-07T00:39:04.516Z,0.00
2019-02-07T00:41:03.984Z,0.00
2019-02-07T00:42:05.044Z,0.00
2019-02-07T00:43:04.383Z,0.00
2019-02-07T00:45:04.830Z,0.00
2019-02-07T00:46:06.068Z,0.00
2019-02-07T00:47:06.288Z,0.00
2019-02-07T00:48:06.696Z,0.00
2019-02-07T00:49:06.917Z,0.00
2019-02-07T00:50:07.324Z,0.00
2019-02-07T00:51:07.534Z,0.00
2019-02-07T00:52:08.059Z,0.00
2019-02-07T00:53:07.918Z,0.00
2019-02-07T00:54:08.172Z,0.00
2019-02-07T00:55:08.297Z,0.00
2019-02-07T00:56:08.797Z,0.00
2019-02-07T00:57:09.017Z,0.00
2019-02-07T00:58:09.320Z,0.00
2019-02-07T00:59:09.538Z,0.00
2019-02-07T01:00:09.449Z,0.00
2019-02-07T01:01:09.854Z,0.00
2019-02-07T01:02:09.983Z,0.00
2019-02-07T01:03:09.664Z,0.00
2019-02-07T01:04:10.381Z,0.00
2019-02-07T01:05:10.617Z,0.00
2019-02-07T01:06:10.532Z,0.00
2019-02-07T01:07:10.889Z,0.00
2019-02-07T01:08:10.922Z,0.00
2019-02-07T01:09:10.917Z,0.00
2019-02-07T01:10:11.897Z,0.00
2019-02-07T01:11:11.365Z,0.00
2019-02-07T01:12:11.874Z,0.00
2019-02-07T01:13:11.677Z,0.00
2019-02-07T01:14:12.144Z,0.00
2019-02-07T01:15:12.880Z,0.00
2019-02-07T01:16:12.921Z,0.00
2019-02-07T01:17:12.780Z,0.00
2019-02-07T01:18:13.100Z,0.00
2019-02-07T01:19:13.524Z,0.00
2019-02-07T01:20:14.789Z,0.00
2019-02-07T01:21:14.137Z,0.00
2019-02-07T01:22:14.636Z,0.00
2019-02-07T01:23:14.980Z,0.00
2019-02-07T01:24:15.839Z,0.00
2019-02-07T01:25:16.560Z,0.00
2019-02-07T01:26:16.495Z,0.00
2019-02-07T01:27:16.434Z,0.00
2019-02-07T01:28:16.757Z,0.00
2019-02-07T01:29:17.196Z,0.00
2019-02-07T01:30:18.544Z,0.00
2019-02-07T01:31:18.311Z,0.00
2019-02-07T01:32:18.515Z,0.00
2019-02-07T01:33:18.421Z,0.00
2019-02-07T01:34:18.842Z,0.00
2019-02-07T01:35:19.597Z,0.00
2019-02-07T01:36:19.706Z,0.00
2019-02-07T01:37:19.812Z,0.00
2019-02-07T01:38:20.340Z,0.00
2019-02-07T01:39:19.827Z,0.00
2019-02-07T01:40:20.039Z,0.00
2019-02-07T01:41:20.554Z,0.00
2019-02-07T01:42:21.485Z,0.00
2019-02-07T01:43:22.045Z,0.00
2019-02-07T01:44:22.115Z,0.00
2019-02-07T01:46:22.227Z,0.00
2019-02-07T01:47:22.132Z,0.00
2019-02-07T01:48:22.661Z,0.00
2019-02-07T01:49:22.682Z,0.00
2019-02-07T01:50:22.669Z,0.00
2019-02-07T01:51:22.875Z,0.00
2019-02-07T01:52:23.150Z,0.00
2019-02-07T01:53:23.298Z,0.00
2019-02-07T01:54:23.825Z,0.00
2019-02-07T01:55:23.621Z,0.00
2019-02-07T01:56:23.826Z,0.00
2019-02-07T01:57:24.246Z,0.00
2019-02-07T01:58:24.661Z,0.00
2019-02-07T01:59:24.877Z,0.00
2019-02-07T02:00:24.878Z,0.00
2019-02-07T02:01:24.891Z,0.00
2019-02-07T02:02:25.199Z,0.00
2019-02-07T02:03:25.470Z,0.00
2019-02-07T02:04:25.539Z,0.00
2019-02-07T02:05:25.527Z,0.00
2019-02-07T02:06:25.691Z,0.00
2019-02-07T02:07:25.712Z,0.00
2019-02-07T02:08:25.762Z,0.00
2019-02-07T02:09:25.889Z,0.00
2019-02-07T02:10:25.814Z,0.00
2019-02-07T02:11:26.352Z,0.00
2019-02-07T02:12:26.899Z,0.00
2019-02-07T02:13:26.310Z,0.00
2019-02-07T02:14:27.335Z,0.00
2019-02-07T02:15:26.673Z,0.00
2019-02-07T02:16:26.987Z,0.00
2019-02-07T02:17:27.419Z,0.00
2019-02-07T02:18:28.162Z,0.00
2019-02-07T02:19:28.702Z,0.00
2019-02-07T02:20:28.037Z,0.00
2019-02-07T02:21:28.361Z,0.00
2019-02-07T02:22:28.831Z,0.00
2019-02-07T02:23:29.174Z,0.00
2019-02-07T02:24:29.583Z,0.00
2019-02-07T02:25:30.135Z,0.00
2019-02-07T02:26:30.375Z,0.00
2019-02-07T02:27:30.278Z,0.00
2019-02-07T02:28:30.897Z,0.00
2019-02-07T02:29:30.773Z,0.00
2019-02-07T02:30:31.137Z,0.00
2019-02-07T02:31:31.296Z,0.00
2019-02-07T02:32:31.713Z,0.00
2019-02-07T02:34:32.112Z,0.00
2019-02-07T02:35:32.460Z,0.00
2019-02-07T02:36:32.851Z,0.00
2019-02-07T02:37:33.670Z,0.00
2019-02-07T02:38:33.487Z,0.00
2019-02-07T02:39:33.943Z,0.00
2019-02-07T02:40:34.366Z,0.00
2019-02-07T02:41:34.234Z,0.00
2019-02-07T02:42:34.988Z,0.00
2019-02-07T02:43:35.500Z,0.00
2019-02-07T02:44:36.233Z,0.00
2019-02-07T02:45:37.935Z,0.00
2019-02-07T02:46:36.957Z,0.00
2019-02-07T02:49:38.006Z,0.00
2019-02-07T02:50:37.889Z,0.00
2019-02-07T02:51:38.421Z,0.00
2019-02-07T02:52:40.294Z,0.00
2019-02-07T02:53:38.536Z,0.00
2019-02-07T02:54:38.747Z,0.00
2019-02-07T02:55:39.069Z,0.00
2019-02-07T02:56:38.664Z,0.00
2019-02-07T02:57:39.396Z,0.00
2019-02-07T02:58:39.593Z,0.00
2019-02-07T02:59:39.518Z,0.00
2019-02-07T03:00:40.146Z,0.00
2019-02-07T03:01:40.330Z,0.00
2019-02-07T03:02:40.572Z,0.00
2019-02-07T03:03:40.771Z,0.00
2019-02-07T03:04:40.917Z,0.00
2019-02-07T03:05:41.303Z,0.00
2019-02-07T03:06:41.371Z,0.00
2019-02-07T03:07:41.442Z,0.00
2019-02-07T03:08:41.983Z,0.00
2019-02-07T03:09:41.987Z,0.00
2019-02-07T03:10:41.974Z,0.00
2019-02-07T03:11:42.656Z,0.00
2019-02-07T03:12:42.601Z,0.00
2019-02-07T03:13:43.888Z,0.00
2019-02-07T03:14:43.342Z,0.00
2019-02-07T03:15:49.646Z,0.00
2019-02-07T03:16:43.977Z,0.00
2019-02-07T03:17:44.837Z,0.00
2019-02-07T03:18:44.814Z,0.00
2019-02-07T03:19:44.805Z,0.00
2019-02-07T03:20:45.187Z,0.00
2019-02-07T03:21:45.668Z,0.00
2019-02-07T03:22:45.992Z,0.00
2019-02-07T03:23:46.234Z,0.00
2019-02-07T03:24:46.828Z,0.00
2019-02-07T03:25:46.612Z,0.00
2019-02-07T03:26:46.871Z,0.00
2019-02-07T03:27:47.349Z,0.00
2019-02-07T03:28:48.213Z,0.00
2019-02-07T03:29:48.596Z,0.00
2019-02-07T03:30:48.461Z,0.00
2019-02-07T03:31:48.589Z,0.00
2019-02-07T03:32:49.027Z,0.00
2019-02-07T03:33:49.102Z,0.00
2019-02-07T03:34:49.335Z,0.00
2019-02-07T03:36:49.922Z,0.00
2019-02-07T03:37:50.804Z,0.00
2019-02-07T03:38:51.527Z,0.00
2019-02-07T03:39:51.442Z,0.00
2019-02-07T03:40:51.444Z,0.00
2019-02-07T03:41:52.066Z,0.00
2019-02-07T03:42:52.278Z,0.00
2019-02-07T03:43:52.484Z,0.00
2019-02-07T03:44:52.595Z,0.00
2019-02-07T03:46:02.292Z,0.00
2019-02-07T03:46:52.724Z,0.00
2019-02-07T03:47:52.918Z,0.00
2019-02-07T03:48:52.924Z,0.00
2019-02-07T03:49:53.340Z,0.00
2019-02-07T03:50:53.658Z,0.00
2019-02-07T03:51:53.777Z,0.00
2019-02-07T03:52:54.179Z,0.00
2019-02-07T03:53:54.593Z,0.00
2019-02-07T03:54:54.566Z,0.00
2019-02-07T03:55:54.709Z,0.00
2019-02-07T03:57:55.030Z,0.00
2019-02-07T03:58:55.337Z,0.00
2019-02-07T03:59:55.389Z,0.00
2019-02-07T04:00:55.978Z,0.00
2019-02-07T04:01:56.076Z,0.00
2019-02-07T04:02:56.255Z,0.00
2019-02-07T04:03:56.275Z,0.00
2019-02-07T04:04:56.730Z,0.00
2019-02-07T04:05:56.791Z,0.00
2019-02-07T04:06:56.800Z,0.00
2019-02-07T04:07:57.353Z,0.00
2019-02-07T04:08:57.215Z,0.00
2019-02-07T04:09:57.526Z,0.00
2019-02-07T04:10:57.631Z,0.00
2019-02-07T04:11:58.229Z,0.00
2019-02-07T04:12:58.344Z,0.00
2019-02-07T04:13:58.415Z,0.00
2019-02-07T04:14:58.738Z,0.00
2019-02-07T04:15:59.312Z,0.00
2019-02-07T04:16:59.742Z,0.00
2019-02-07T04:17:59.777Z,0.00
2019-02-07T04:19:00.116Z,0.00
2019-02-07T04:20:00.229Z,0.00
2019-02-07T04:21:00.496Z,0.00
2019-02-07T04:22:00.927Z,0.00
2019-02-07T04:23:01.551Z,0.00
2019-02-07T04:24:01.554Z,0.00
2019-02-07T04:25:01.762Z,0.00
2019-02-07T04:26:01.968Z,0.00
2019-02-07T04:27:02.288Z,0.00
2019-02-07T04:28:02.505Z,0.00
2019-02-07T04:29:02.908Z,0.00
2019-02-07T04:30:03.127Z,0.00
2019-02-07T04:31:03.450Z,0.00
2019-02-07T04:32:03.244Z,0.00
2019-02-07T04:33:03.826Z,0.00
2019-02-07T04:34:04.080Z,0.00
2019-02-07T04:35:04.054Z,0.00
2019-02-07T04:36:04.041Z,0.00
2019-02-07T04:37:04.921Z,0.00
2019-02-07T04:38:04.483Z,0.00
2019-02-07T04:39:05.129Z,0.00
2019-02-07T04:40:05.348Z,0.00
2019-02-07T04:41:05.861Z,0.00
2019-02-07T04:42:06.074Z,0.00
2019-02-07T04:43:06.804Z,0.00
2019-02-07T04:44:07.226Z,0.00
2019-02-07T04:45:07.218Z,0.00
2019-02-07T04:46:07.233Z,0.00
2019-02-07T04:47:07.641Z,0.00
2019-02-07T04:48:07.851Z,0.00
2019-02-07T04:49:08.478Z,0.00
2019-02-07T04:50:08.377Z,0.00
2019-02-07T04:51:08.731Z,0.00
2019-02-07T04:52:08.595Z,0.00
2019-02-07T04:53:09.015Z,0.00
2019-02-07T04:54:08.964Z,0.00
2019-02-07T04:55:09.531Z,0.00
2019-02-07T04:56:09.234Z,0.00
2019-02-07T04:57:09.466Z,0.00
2019-02-07T04:58:09.965Z,0.00
2019-02-07T04:59:09.875Z,0.00
2019-02-07T05:00:10.585Z,0.00
2019-02-07T05:01:10.716Z,0.00
2019-02-07T05:02:10.929Z,0.00
2019-02-07T05:03:10.824Z,0.00
2019-02-07T05:04:11.266Z,0.00
2019-02-07T05:05:11.498Z,0.00
2019-02-07T05:06:11.523Z,0.00
2019-02-07T05:07:11.513Z,0.00
2019-02-07T05:08:11.871Z,0.00
2019-02-07T05:09:12.705Z,0.00
2019-02-07T05:10:12.195Z,0.00
2019-02-07T05:11:12.473Z,0.00
2019-02-07T05:12:12.419Z,0.00
2019-02-07T05:13:12.886Z,0.00
2019-02-07T05:14:13.567Z,0.00
2019-02-07T05:15:13.536Z,0.00
2019-02-07T05:16:14.077Z,0.00
2019-02-07T05:17:14.500Z,0.00
2019-02-07T05:18:14.461Z,0.00
2019-02-07T05:19:15.343Z,0.00
2019-02-07T05:20:16.455Z,0.00
2019-02-07T05:21:15.404Z,0.00
2019-02-07T05:22:15.929Z,0.00
2019-02-07T05:23:16.290Z,0.00
2019-02-07T05:24:16.247Z,0.00
2019-02-07T05:25:17.306Z,0.00
2019-02-07T05:26:16.872Z,0.00
2019-02-07T05:27:17.323Z,0.00
2019-02-07T05:28:17.494Z,0.00
2019-02-07T05:29:17.651Z,0.00
2019-02-07T05:30:18.404Z,0.00
2019-02-07T05:31:18.477Z,0.00
2019-02-07T05:32:18.691Z,0.00
2019-02-07T05:33:19.100Z,0.00
2019-02-07T05:34:19.202Z,0.00
2019-02-07T05:35:19.511Z,0.00
2019-02-07T05:36:19.490Z,0.00
2019-02-07T05:37:20.059Z,0.00
2019-02-07T05:38:21.282Z,0.00
2019-02-07T05:39:21.100Z,0.00
2019-02-07T05:40:21.622Z,0.00
2019-02-07T05:41:21.820Z,0.00
2019-02-07T05:42:22.720Z,0.00
2019-02-07T05:43:22.547Z,0.00
2019-02-07T05:44:22.722Z,0.00
2019-02-07T05:45:22.864Z,0.00
2019-02-07T05:46:22.900Z,0.00
2019-02-07T05:47:22.886Z,0.00
2019-02-07T05:48:23.100Z,0.00
2019-02-07T05:49:22.995Z,0.00
2019-02-07T05:50:23.081Z,0.00
2019-02-07T05:51:23.516Z,0.00
2019-02-07T05:52:23.833Z,0.00
2019-02-07T05:54:24.376Z,0.00
2019-02-07T05:55:24.890Z,0.00
2019-02-07T05:56:25.090Z,0.00
2019-02-07T05:57:25.362Z,0.00
2019-02-07T05:58:25.742Z,0.00
2019-02-07T05:59:25.841Z,0.00
2019-02-07T06:00:25.823Z,0.00
2019-02-07T06:01:26.221Z,0.00
2019-02-07T06:02:26.885Z,0.00
2019-02-07T06:03:26.359Z,0.00
2019-02-07T06:04:26.600Z,0.00
2019-02-07T06:05:26.796Z,0.00
2019-02-07T06:06:27.101Z,0.00
2019-02-07T06:07:27.718Z,0.00
2019-02-07T06:08:27.695Z,0.00
2019-02-07T06:09:28.255Z,0.00
2019-02-07T06:10:28.513Z,0.00
2019-02-07T06:11:28.547Z,0.00
2019-02-07T06:12:28.729Z,0.00
2019-02-07T06:13:28.881Z,0.00
2019-02-07T06:14:29.271Z,0.00
2019-02-07T06:15:29.297Z,1.00
2019-02-07T06:16:29.596Z,1.00
2019-02-07T06:17:29.590Z,1.00
2019-02-07T06:18:29.628Z,0.00
2019-02-07T06:19:29.947Z,1.00
2019-02-07T06:20:29.910Z,2.00
2019-02-07T06:21:30.320Z,1.00
2019-02-07T06:22:30.331Z,2.00
2019-02-07T06:23:30.763Z,2.00
2019-02-07T06:24:30.903Z,1.00
2019-02-07T06:25:30.895Z,2.00
2019-02-07T06:26:30.826Z,3.00
2019-02-07T06:27:31.401Z,3.00
2019-02-07T06:28:31.537Z,4.00
2019-02-07T06:29:31.632Z,4.00
2019-02-07T06:30:32.133Z,5.00
2019-02-07T06:31:32.439Z,8.00
2019-02-07T06:32:32.472Z,9.00
2019-02-07T06:33:32.908Z,10.00
2019-02-07T06:34:33.165Z,10.00
2019-02-07T06:35:33.414Z,9.00
2019-02-07T06:36:33.440Z,10.00
2019-02-07T06:37:33.935Z,13.00
2019-02-07T06:38:33.835Z,15.00
2019-02-07T06:39:34.038Z,17.00
2019-02-07T06:40:34.487Z,19.00
2019-02-07T06:41:34.597Z,19.00
2019-02-07T06:42:34.570Z,20.00
2019-02-07T06:43:34.622Z,24.00
2019-02-07T06:44:34.591Z,28.00
2019-02-07T06:45:36.263Z,32.00
2019-02-07T06:46:36.375Z,40.00
2019-02-07T06:47:36.478Z,43.00
2019-02-07T06:48:36.588Z,47.00
2019-02-07T06:49:36.803Z,54.00
2019-02-07T06:50:37.010Z,60.00
2019-02-07T06:51:36.924Z,70.00
2019-02-07T06:52:37.233Z,85.00
2019-02-07T06:53:37.243Z,96.00
2019-02-07T06:54:37.344Z,100.00
2019-02-07T06:55:37.453Z,105.00
2019-02-07T06:56:37.683Z,102.00
2019-02-07T06:57:37.673Z,107.00
2019-02-07T06:58:38.561Z,120.00
2019-02-07T06:59:38.725Z,142.00
2019-02-07T07:00:38.512Z,158.00
2019-02-07T07:01:47.809Z,153.00
2019-02-07T07:02:38.828Z,156.00
2019-02-07T07:03:38.634Z,166.00
2019-02-07T07:04:38.947Z,175.00
2019-02-07T07:05:39.257Z,203.00
2019-02-07T07:06:39.805Z,244.00
2019-02-07T07:07:39.984Z,265.00
2019-02-07T07:08:40.405Z,250.00
2019-02-07T07:09:40.761Z,233.00
2019-02-07T07:10:40.743Z,221.00
2019-02-07T07:11:41.154Z,240.00
2019-02-07T07:12:40.800Z,277.00
2019-02-07T07:13:41.273Z,294.00
2019-02-07T07:14:41.260Z,299.00
2019-02-07T07:15:41.243Z,314.00
2019-02-07T07:16:41.518Z,348.00
2019-02-07T07:17:41.797Z,384.00
2019-02-07T07:18:41.853Z,432.00
2019-02-07T07:19:45.040Z,435.00
2019-02-07T07:20:42.312Z,432.00
2019-02-07T07:21:42.264Z,445.00
2019-02-07T07:22:42.516Z,465.00
2019-02-07T07:23:42.683Z,500.00
2019-02-07T07:24:43.170Z,551.00
2019-02-07T07:25:43.703Z,563.00
2019-02-07T07:26:43.770Z,512.00
2019-02-07T07:27:44.180Z,473.00
2019-02-07T07:28:44.170Z,454.00
2019-02-07T07:29:44.948Z,463.00
2019-02-07T07:30:45.366Z,470.00
2019-02-07T07:31:45.168Z,471.00
2019-02-07T07:32:45.670Z,480.00
2019-02-07T07:33:45.256Z,484.00
2019-02-07T07:35:46.213Z,491.00
2019-02-07T07:36:45.682Z,522.00
2019-02-07T07:37:46.093Z,553.00
2019-02-07T07:38:46.339Z,572.00
2019-02-07T07:39:46.616Z,578.00
2019-02-07T07:40:47.262Z,606.00
2019-02-07T07:41:47.339Z,623.00
2019-02-07T07:42:47.355Z,655.00
2019-02-07T07:43:47.476Z,669.00
2019-02-07T07:44:47.430Z,671.00
2019-02-07T07:45:47.973Z,684.00
2019-02-07T07:46:48.538Z,717.00
2019-02-07T07:47:48.486Z,806.00
2019-02-07T07:48:49.197Z,844.00
2019-02-07T07:49:49.485Z,834.00
2019-02-07T07:50:49.797Z,878.00
2019-02-07T07:51:58.452Z,922.00
2019-02-07T07:52:52.923Z,899.00
2019-02-07T07:53:51.151Z,845.00
2019-02-07T07:54:51.668Z,831.00
2019-02-07T07:55:51.770Z,801.00
2019-02-07T07:56:51.981Z,819.00
2019-02-07T07:57:52.000Z,832.00
2019-02-07T07:58:52.404Z,836.00
2019-02-07T07:59:52.523Z,900.00
2019-02-07T08:00:52.767Z,985.00
2019-02-07T08:01:53.434Z,1003.00
2019-02-07T08:02:53.471Z,1026.00
2019-02-07T08:03:53.575Z,1017.00
2019-02-07T08:04:54.091Z,1106.00
2019-02-07T08:05:53.802Z,1249.00
2019-02-07T08:06:54.507Z,1355.00
2019-02-07T08:07:54.631Z,1342.00
2019-02-07T08:08:54.717Z,1242.00
2019-02-07T08:09:55.800Z,1137.00
2019-02-07T08:10:55.401Z,1090.00
2019-02-07T08:11:55.465Z,1115.00
2019-02-07T08:12:55.802Z,1163.00
2019-02-07T08:13:55.778Z,1251.00
2019-02-07T08:14:55.822Z,1283.00
2019-02-07T08:15:55.781Z,1268.00
2019-02-07T08:16:56.035Z,1392.00
2019-02-07T08:17:56.057Z,1473.00
2019-02-07T08:18:56.147Z,1384.00
2019-02-07T08:19:56.845Z,1268.00
2019-02-07T08:20:56.404Z,1173.00
2019-02-07T08:21:56.567Z,1164.00
2019-02-07T08:22:56.524Z,1227.00
2019-02-07T08:23:56.633Z,1328.00
2019-02-07T08:24:56.637Z,1524.00
2019-02-07T08:25:56.649Z,1533.00
2019-02-07T08:26:56.843Z,1360.00
2019-02-07T08:27:57.367Z,1321.00
2019-02-07T08:28:57.821Z,1341.00
2019-02-07T08:29:57.797Z,1422.00
2019-02-07T08:30:58.317Z,1490.00
2019-02-07T08:31:59.402Z,1332.00
2019-02-07T08:33:05.084Z,1343.00
2019-02-07T08:33:58.488Z,1334.00
2019-02-07T08:34:58.989Z,1285.00
2019-02-07T08:35:59.291Z,1224.00
2019-02-07T08:36:59.311Z,1190.00
2019-02-07T08:37:59.302Z,1178.00
2019-02-07T08:39:00.098Z,1240.00
2019-02-07T08:40:00.437Z,1410.00
2019-02-07T08:41:00.406Z,1584.00
2019-02-07T08:42:00.776Z,1860.00
2019-02-07T08:43:01.190Z,2105.00
2019-02-07T08:44:01.003Z,2374.00
2019-02-07T08:45:00.686Z,2613.00
2019-02-07T08:46:01.363Z,2695.00
2019-02-07T08:47:01.488Z,2509.00
2019-02-07T08:48:03.956Z,2328.00
2019-02-07T08:49:02.854Z,2244.00
2019-02-07T08:50:03.386Z,2245.00
2019-02-07T08:51:03.393Z,2341.00
2019-02-07T08:52:03.914Z,2499.00
2019-02-07T08:53:03.114Z,2528.00
2019-02-07T08:54:03.719Z,2538.00
2019-02-07T08:55:03.290Z,2543.00
2019-02-07T08:56:03.937Z,2629.00
2019-02-07T08:57:03.844Z,2653.00
2019-02-07T08:58:04.428Z,2638.00
2019-02-07T08:59:04.531Z,2673.00
2019-02-07T09:00:04.616Z,2702.00
2019-02-07T09:01:06.226Z,2614.00
2019-02-07T09:02:06.128Z,2549.00
2019-02-07T09:03:06.447Z,2603.00
2019-02-07T09:04:07.070Z,2761.00
2019-02-07T09:05:07.071Z,2672.00
2019-02-07T09:06:07.076Z,2517.00
2019-02-07T09:07:07.491Z,2406.00
2019-02-07T09:08:07.874Z,2421.00
2019-02-07T09:09:08.337Z,2620.00
2019-02-07T09:10:08.126Z,2719.00
2019-02-07T09:11:08.335Z,2857.00
2019-02-07T09:12:08.752Z,2950.00
2019-02-07T09:13:08.964Z,2974.00
2019-02-07T09:14:09.068Z,3034.00
2019-02-07T09:15:09.193Z,3371.00
2019-02-07T09:16:09.696Z,3740.00
2019-02-07T09:17:10.022Z,3663.00
2019-02-07T09:18:13.216Z,3118.00
2019-02-07T09:19:10.473Z,2806.00
2019-02-07T09:20:10.634Z,2735.00
2019-02-07T09:21:10.637Z,2607.00
2019-02-07T09:22:11.278Z,2544.00
2019-02-07T09:23:10.968Z,2807.00
2019-02-07T09:24:11.164Z,2927.00
2019-02-07T09:25:11.674Z,2964.00
2019-02-07T09:26:11.755Z,3106.00
2019-02-07T09:27:12.208Z,3512.00
2019-02-07T09:28:12.889Z,3714.00
2019-02-07T09:29:12.664Z,3438.00
2019-02-07T09:30:12.635Z,2978.00
2019-02-07T09:31:12.870Z,2919.00
2019-02-07T09:32:13.055Z,3020.00
2019-02-07T09:33:13.599Z,3225.00
2019-02-07T09:34:13.432Z,3400.00
2019-02-07T09:35:14.239Z,3650.00
2019-02-07T09:36:13.764Z,3650.00
2019-02-07T09:37:14.213Z,3714.00
2019-02-07T09:38:14.603Z,4286.00
2019-02-07T09:39:14.863Z,4376.00
2019-02-07T09:40:15.911Z,4353.00
2019-02-07T09:41:15.195Z,3887.00
2019-02-07T09:42:16.017Z,3629.00
2019-02-07T09:43:15.830Z,3418.00
2019-02-07T09:44:15.890Z,3329.00
2019-02-07T09:45:16.487Z,3417.00
2019-02-07T09:46:16.148Z,3354.00
2019-02-07T09:47:16.218Z,3624.00
2019-02-07T09:48:21.627Z,4016.00
2019-02-07T09:49:16.738Z,4274.00
2019-02-07T09:50:18.013Z,4204.00
2019-02-07T09:51:17.376Z,4192.00
2019-02-07T09:52:17.682Z,4096.00
2019-02-07T09:53:24.083Z,3944.00
2019-02-07T09:54:18.238Z,3847.00
2019-02-07T09:55:18.354Z,3790.00
2019-02-07T09:56:18.549Z,3759.00
2019-02-07T09:57:18.660Z,3622.00
2019-02-07T09:58:19.089Z,3569.00
2019-02-07T09:59:19.064Z,3558.00
2019-02-07T10:00:19.406Z,3706.00
2019-02-07T10:01:19.387Z,3793.00
2019-02-07T10:02:19.544Z,3889.00
2019-02-07T10:03:19.842Z,3851.00
2019-02-07T10:04:21.389Z,3591.00
2019-02-07T10:05:21.187Z,3241.00
2019-02-07T10:06:21.796Z,3022.00
2019-02-07T10:07:21.916Z,3050.00
2019-02-07T10:08:22.023Z,3067.00
2019-02-07T10:09:22.505Z,3193.00
2019-02-07T10:10:22.752Z,3513.00
2019-02-07T10:11:22.943Z,3571.00
2019-02-07T10:12:23.078Z,3495.00
2019-02-07T10:13:23.597Z,3679.00
2019-02-07T10:14:23.595Z,3767.00
2019-02-07T10:15:23.956Z,3547.00
2019-02-07T10:16:23.925Z,3284.00
2019-02-07T10:17:24.331Z,3612.00
2019-02-07T10:18:32.802Z,4052.00
2019-02-07T10:19:24.547Z,4270.00
2019-02-07T10:20:25.273Z,4467.00
2019-02-07T10:21:25.613Z,4446.00
2019-02-07T10:22:25.699Z,4320.00
2019-02-07T10:23:25.967Z,3724.00
2019-02-07T10:24:26.203Z,3484.00
2019-02-07T10:25:26.343Z,3511.00
2019-02-07T10:26:26.537Z,3515.00
2019-02-07T10:27:26.864Z,3601.00
2019-02-07T10:28:27.680Z,3468.00
2019-02-07T10:29:27.141Z,3050.00
2019-02-07T10:30:27.142Z,3051.00
2019-02-07T10:31:27.368Z,3029.00
2019-02-07T10:32:27.378Z,2924.00
2019-02-07T10:33:27.437Z,2699.00
2019-02-07T10:34:28.467Z,2530.00
2019-02-07T10:35:28.398Z,2309.00
2019-02-07T10:36:28.392Z,2413.00
2019-02-07T10:37:29.310Z,2463.00
2019-02-07T10:38:28.975Z,2417.00
2019-02-07T10:39:29.496Z,2382.00
2019-02-07T10:40:29.426Z,2513.00
2019-02-07T10:41:31.882Z,2650.00
2019-02-07T10:42:29.829Z,2806.00
2019-02-07T10:43:30.341Z,3159.00
2019-02-07T10:44:30.653Z,3282.00
2019-02-07T10:45:30.897Z,3358.00
2019-02-07T10:46:31.613Z,3234.00
2019-02-07T10:47:31.602Z,3109.00
2019-02-07T10:48:31.693Z,2858.00
2019-02-07T10:49:31.683Z,2731.00
2019-02-07T10:50:32.475Z,2679.00
2019-02-07T10:51:32.362Z,2749.00
2019-02-07T10:52:32.753Z,2796.00
2019-02-07T10:53:32.714Z,2868.00
2019-02-07T10:54:32.770Z,3005.00
2019-02-07T10:55:33.810Z,3135.00
2019-02-07T10:56:33.368Z,3128.00
2019-02-07T10:57:33.915Z,3101.00
2019-02-07T10:58:34.025Z,3058.00
2019-02-07T10:59:34.333Z,3007.00
2019-02-07T11:00:34.337Z,3180.00
2019-02-07T11:01:34.808Z,3196.00
2019-02-07T11:02:36.303Z,2984.00
2019-02-07T11:03:36.716Z,2756.00
2019-02-07T11:04:36.826Z,2757.00
2019-02-07T11:05:36.704Z,2632.00
2019-02-07T11:06:37.164Z,2483.00
2019-02-07T11:07:37.560Z,2474.00
2019-02-07T11:08:37.887Z,2609.00
2019-02-07T11:09:38.057Z,2903.00
2019-02-07T11:10:37.924Z,3113.00
2019-02-07T11:11:38.310Z,2975.00
2019-02-07T11:12:38.618Z,2685.00
2019-02-07T11:13:39.340Z,2570.00
2019-02-07T11:14:39.141Z,2554.00
2019-02-07T11:15:39.665Z,2613.00
2019-02-07T11:16:39.675Z,2706.00
2019-02-07T11:17:39.871Z,2881.00
2019-02-07T11:18:40.295Z,3195.00
2019-02-07T11:19:40.416Z,3378.00
2019-02-07T11:20:40.615Z,3204.00
2019-02-07T11:21:40.916Z,3062.00
2019-02-07T11:22:40.950Z,3223.00
2019-02-07T11:23:40.905Z,3234.00
2019-02-07T11:24:41.214Z,2807.00
2019-02-07T11:25:41.293Z,2963.00
2019-02-07T11:26:41.742Z,2980.00
2019-02-07T11:27:42.515Z,2929.00
2019-02-07T11:28:42.095Z,3184.00
2019-02-07T11:29:42.559Z,3578.00
2019-02-07T11:30:42.625Z,3645.00
2019-02-07T11:31:43.022Z,3670.00
2019-02-07T11:32:43.152Z,3632.00
2019-02-07T11:33:43.153Z,3635.00
2019-02-07T11:34:45.970Z,3707.00
2019-02-07T11:35:43.636Z,3615.00
2019-02-07T11:36:53.522Z,3224.00
2019-02-07T11:37:43.864Z,3107.00
2019-02-07T11:38:44.104Z,3213.00
2019-02-07T11:39:44.625Z,3322.00
2019-02-07T11:40:44.796Z,3277.00
2019-02-07T11:41:45.876Z,3284.00
2019-02-07T11:42:45.745Z,3092.00
2019-02-07T11:43:45.481Z,2997.00
2019-02-07T11:44:45.358Z,2985.00
2019-02-07T11:45:45.459Z,3017.00
2019-02-07T11:46:48.712Z,3225.00
2019-02-07T11:47:46.123Z,3448.00
2019-02-07T11:48:46.086Z,3573.00
2019-02-07T11:49:46.404Z,3565.00
2019-02-07T11:50:46.982Z,3586.00
2019-02-07T11:51:46.995Z,3633.00
2019-02-07T11:52:47.184Z,3596.00
2019-02-07T11:53:47.252Z,3873.00
2019-02-07T11:54:47.765Z,4033.00
2019-02-07T11:55:48.086Z,4387.00
2019-02-07T11:56:48.188Z,4320.00
2019-02-07T11:57:48.533Z,4123.00
2019-02-07T11:58:48.812Z,3675.00
2019-02-07T11:59:49.779Z,3267.00
2019-02-07T12:00:49.968Z,3477.00
2019-02-07T12:01:50.412Z,3642.00
2019-02-07T12:02:50.532Z,3663.00
2019-02-07T12:03:50.829Z,3866.00
2019-02-07T12:04:51.765Z,3975.00
2019-02-07T12:05:51.661Z,4177.00
2019-02-07T12:06:51.977Z,4091.00
2019-02-07T12:07:52.094Z,4529.00
2019-02-07T12:08:52.211Z,5198.00
2019-02-07T12:09:52.476Z,5338.00
2019-02-07T12:10:52.556Z,4547.00
2019-02-07T12:11:52.932Z,4123.00
2019-02-07T12:12:53.457Z,4142.00
2019-02-07T12:13:53.915Z,4089.00
2019-02-07T12:14:54.382Z,3825.00
2019-02-07T12:15:54.915Z,3635.00
2019-02-07T12:16:55.217Z,3360.00
2019-02-07T12:17:55.334Z,3176.00
2019-02-07T12:18:55.492Z,2940.00
2019-02-07T12:19:55.747Z,3116.00
2019-02-07T12:20:55.974Z,3040.00
2019-02-07T12:21:56.904Z,2902.00
2019-02-07T12:22:56.032Z,2662.00
2019-02-07T12:23:56.843Z,2310.00
2019-02-07T12:24:57.009Z,2218.00
2019-02-07T12:25:56.914Z,2181.00
2019-02-07T12:26:57.331Z,2312.00
2019-02-07T12:27:57.310Z,2490.00
2019-02-07T12:28:57.410Z,2590.00
2019-02-07T12:29:57.543Z,2480.00
2019-02-07T12:31:57.528Z,2654.00
2019-02-07T12:32:57.639Z,2663.00
2019-02-07T12:33:58.138Z,2445.00
2019-02-07T12:34:58.046Z,2189.00
2019-02-07T12:35:58.275Z,2198.00
2019-02-07T12:36:58.375Z,2390.00
2019-02-07T12:37:58.521Z,2424.00
2019-02-07T12:38:58.840Z,2567.00
2019-02-07T12:39:59.055Z,2548.00
2019-02-07T12:40:59.366Z,2678.00
2019-02-07T12:41:59.225Z,2843.00
2019-02-07T12:42:59.330Z,2957.00
2019-02-07T12:44:00.309Z,3331.00
2019-02-07T12:45:00.430Z,3435.00
2019-02-07T12:46:00.173Z,3426.00
2019-02-07T12:47:00.282Z,3370.00
2019-02-07T12:48:00.383Z,3299.00
2019-02-07T12:49:00.429Z,3246.00
2019-02-07T12:50:00.763Z,3217.00
2019-02-07T12:51:01.580Z,3455.00
2019-02-07T12:52:00.863Z,3338.00
2019-02-07T12:53:01.596Z,3445.00
2019-02-07T12:54:01.804Z,3732.00
2019-02-07T12:55:02.031Z,3499.00
2019-02-07T12:56:02.844Z,3473.00
2019-02-07T12:57:02.143Z,3368.00
2019-02-07T12:58:02.757Z,3444.00